createdAt,value
2019-05-23T00:04:03.257Z,101436.14
2019-05-23T00:09:30.525Z,101437.02
2019-05-23T00:14:44.812Z,101437.76
2019-05-23T00:19:53.266Z,101437.76
2019-05-23T00:25:01.250Z,101442.54
2019-05-23T00:30:10.562Z,101436.75
2019-05-23T00:35:19.724Z,101429.38
2019-05-23T00:40:28.259Z,101429.38
2019-05-23T00:45:36.257Z,101436.84
2019-05-23T00:50:42.955Z,101436.84
2019-05-23T00:55:52.661Z,101433.51
2019-05-23T01:01:00.394Z,101448.86
2019-05-23T01:06:07.244Z,101448.86
2019-05-23T01:11:16.303Z,101458.00
2019-05-23T01:16:25.543Z,101461.89
2019-05-23T01:21:48.769Z,101461.89
2019-05-23T01:26:57.462Z,101460.02
2019-05-23T01:32:13.038Z,101455.30
2019-05-23T01:37:21.251Z,101458.12
2019-05-23T01:42:28.444Z,101460.36
2019-05-23T01:47:35.875Z,101465.13
2019-05-23T01:52:43.559Z,101466.26
2019-05-23T01:57:51.591Z,101477.73
2019-05-23T02:02:59.546Z,101477.73
2019-05-23T02:08:09.410Z,101473.84
2019-05-23T02:13:16.833Z,101484.73
2019-05-23T02:18:26.265Z,101485.31
2019-05-23T02:23:34.596Z,101479.22
2019-05-23T02:28:41.642Z,101481.48
2019-05-23T02:33:47.493Z,101477.58
2019-05-23T02:39:10.241Z,101474.36
2019-05-23T02:44:23.252Z,101483.31
2019-05-23T02:49:34.297Z,101483.31
2019-05-23T02:54:41.574Z,101478.00
2019-05-23T02:59:53.379Z,101480.03
2019-05-23T03:05:03.275Z,101480.03
2019-05-23T03:10:13.260Z,101481.20
2019-05-23T03:15:22.128Z,101478.72
2019-05-23T03:20:30.255Z,101478.72
2019-05-23T03:26:55.677Z,101484.30
2019-05-23T03:32:14.907Z,101483.78
2019-05-23T03:37:22.454Z,101483.78
2019-05-23T03:42:31.265Z,101494.63
2019-05-23T03:47:40.033Z,101492.66
2019-05-23T03:52:47.618Z,101501.62
2019-05-23T03:57:54.268Z,101496.85
2019-05-23T04:03:02.852Z,101496.85
2019-05-23T04:08:12.258Z,101502.14
2019-05-23T04:13:19.565Z,101517.70
2019-05-23T04:18:27.259Z,101524.14
2019-05-23T04:23:34.556Z,101524.14
2019-05-23T04:28:43.143Z,101524.97
2019-05-23T04:33:50.560Z,101516.06
2019-05-23T04:38:57.562Z,101531.11
2019-05-23T04:44:04.517Z,101532.80
2019-05-23T04:49:11.767Z,101532.80
2019-05-23T04:54:18.574Z,101541.47
2019-05-23T04:59:26.052Z,101544.88
2019-05-23T05:04:35.274Z,101544.88
2019-05-23T05:09:43.597Z,101550.77
2019-05-23T05:14:51.606Z,101555.22
2019-05-23T05:19:59.226Z,101568.00
2019-05-23T05:25:07.715Z,101568.00
2019-05-23T05:30:15.532Z,101574.67
2019-05-23T05:35:22.494Z,101574.67
2019-05-23T05:40:30.479Z,101574.95
2019-05-23T05:45:38.268Z,101569.66
2019-05-23T05:50:45.451Z,101577.19
2019-05-23T05:55:52.538Z,101584.09
2019-05-23T06:01:03.085Z,101578.77
2019-05-23T06:06:21.650Z,101573.44
2019-05-23T06:11:29.271Z,101578.88
2019-05-23T06:16:36.363Z,101578.88
2019-05-23T06:24:08.259Z,101573.81
2019-05-23T06:29:15.673Z,101571.47
2019-05-23T06:34:23.287Z,101579.36
2019-05-23T06:39:31.512Z,101579.36
2019-05-23T06:44:39.584Z,101584.23
2019-05-23T06:49:46.602Z,101588.91
2019-05-23T06:54:53.931Z,101587.67
2019-05-23T07:00:01.112Z,101587.67
2019-05-23T07:05:08.594Z,101590.57
2019-05-23T07:10:16.882Z,101599.52
2019-05-23T07:15:24.267Z,101596.61
2019-05-23T07:20:31.701Z,101596.61
2019-05-23T07:25:38.605Z,101601.62
2019-05-23T07:30:46.112Z,101604.32
2019-05-23T07:35:52.413Z,101604.32
2019-05-23T07:41:00.105Z,101608.55
2019-05-23T07:46:08.098Z,101608.55
2019-05-23T07:51:15.238Z,101601.02
2019-05-23T07:56:23.936Z,101589.36
2019-05-23T08:01:34.266Z,101596.39
2019-05-23T08:06:41.617Z,101592.78
2019-05-23T08:11:49.041Z,101594.55
2019-05-23T08:16:56.312Z,101594.55
2019-05-23T08:22:03.873Z,101595.06
2019-05-23T08:27:12.426Z,101602.25
2019-05-23T08:32:19.875Z,101606.63
2019-05-23T08:37:29.043Z,101600.63
2019-05-23T08:42:36.692Z,101604.43
2019-05-23T08:47:44.114Z,101588.32
2019-05-23T08:52:51.601Z,101594.44
2019-05-23T08:57:59.257Z,101589.89
2019-05-23T09:03:07.897Z,101589.89
2019-05-23T09:08:17.035Z,101588.94
2019-05-23T09:13:24.232Z,101581.27
2019-05-23T09:18:32.751Z,101580.22
2019-05-23T09:23:40.451Z,101574.95
2019-05-23T09:28:47.592Z,101574.28
2019-05-23T09:33:54.606Z,101569.02
2019-05-23T09:41:29.933Z,101571.98
2019-05-23T09:46:39.845Z,101567.98
2019-05-23T09:51:49.857Z,101564.27
2019-05-23T09:56:57.587Z,101568.09
2019-05-23T10:02:04.618Z,101568.93
2019-05-23T10:07:13.715Z,101566.95
2019-05-23T10:12:22.551Z,101566.95
2019-05-23T10:17:29.576Z,101563.26
2019-05-23T10:22:36.602Z,101558.33
2019-05-23T10:27:43.595Z,101559.73
2019-05-23T10:32:53.054Z,101560.55
2019-05-23T10:38:01.045Z,101549.11
2019-05-23T10:43:08.610Z,101549.11
2019-05-23T10:48:17.287Z,101553.94
2019-05-23T10:53:25.030Z,101553.94
2019-05-23T10:58:32.431Z,101550.06
2019-05-23T11:03:39.594Z,101540.12
2019-05-23T11:08:46.611Z,101539.41
2019-05-23T11:13:57.284Z,101534.34
2019-05-23T11:19:04.478Z,101534.34
2019-05-23T11:24:12.024Z,101534.78
2019-05-23T11:29:19.520Z,101548.27
2019-05-23T11:34:29.272Z,101523.89
2019-05-23T11:40:36.697Z,101519.63
2019-05-23T11:46:01.301Z,101512.22
2019-05-23T11:51:08.586Z,101512.22
2019-05-23T11:56:15.694Z,101524.67
2019-05-23T12:01:48.262Z,101517.61
2019-05-23T12:07:04.615Z,101517.61
2019-05-23T12:12:11.636Z,101511.41
2019-05-23T12:17:19.637Z,101513.17
2019-05-23T12:22:28.741Z,101512.50
2019-05-23T12:27:35.932Z,101512.50
2019-05-23T12:32:43.253Z,101509.80
2019-05-23T12:37:50.570Z,101487.81
2019-05-23T12:42:57.622Z,101487.81
2019-05-23T12:48:09.103Z,101477.51
2019-05-23T12:53:16.330Z,101477.51
2019-05-23T12:58:24.249Z,101472.41
2019-05-23T13:03:32.256Z,101460.84
2019-05-23T13:08:39.592Z,101463.23
2019-05-23T13:13:46.608Z,101467.28
2019-05-23T13:18:53.614Z,101458.20
2019-05-23T13:24:00.525Z,101467.85
2019-05-23T13:29:07.629Z,101467.85
2019-05-23T13:34:14.590Z,101450.08
2019-05-23T13:39:21.773Z,101449.06
2019-05-23T13:44:35.085Z,101449.06
2019-05-23T13:52:10.169Z,101436.08
2019-05-23T13:57:17.871Z,101439.88
2019-05-23T14:02:26.020Z,101441.20
2019-05-23T14:07:33.451Z,101431.58
2019-05-23T14:12:40.837Z,101429.79
2019-05-23T14:17:48.286Z,101427.20
2019-05-23T14:23:00.713Z,101426.80
2019-05-23T14:28:10.042Z,101425.00
2019-05-23T14:33:33.269Z,101425.00
2019-05-23T14:38:41.674Z,101428.07
2019-05-23T14:43:50.536Z,101428.48
2019-05-23T14:49:05.612Z,101428.48
2019-05-23T14:54:38.887Z,101422.62
2019-05-23T14:59:46.354Z,101418.39
2019-05-23T15:04:54.101Z,101414.23
2019-05-23T15:10:01.583Z,101413.39
2019-05-23T15:15:09.439Z,101406.46
2019-05-23T15:20:20.308Z,101406.46
2019-05-23T15:25:27.556Z,101405.28
2019-05-23T15:30:34.587Z,101400.23
2019-05-23T15:35:41.861Z,101391.94
2019-05-23T15:40:48.857Z,101391.94
2019-05-23T15:45:56.103Z,101379.47
2019-05-23T15:51:03.459Z,101379.58
2019-05-23T15:56:40.493Z,101382.47
2019-05-23T16:01:59.264Z,101381.77
2019-05-23T16:07:07.036Z,101389.72
2019-05-23T16:12:14.714Z,101387.30
2019-05-23T16:17:21.785Z,101388.56
2019-05-23T16:22:30.247Z,101387.53
2019-05-23T16:27:38.247Z,101384.48
2019-05-23T16:32:46.734Z,101377.78
2019-05-23T16:37:53.770Z,101384.09
2019-05-23T16:43:00.572Z,101371.36
2019-05-23T16:48:08.120Z,101369.59
2019-05-23T16:53:15.575Z,101369.59
2019-05-23T16:58:44.843Z,101384.69
2019-05-23T17:04:21.285Z,101376.12
2019-05-23T17:10:07.648Z,101380.95
2019-05-23T17:15:20.274Z,101380.95
2019-05-23T17:20:52.313Z,101382.16
2019-05-23T17:26:06.280Z,101386.74
2019-05-23T17:31:16.380Z,101383.83
2019-05-23T17:36:23.987Z,101383.83
2019-05-23T17:41:33.483Z,101391.59
2019-05-23T17:46:41.264Z,101384.73
2019-05-23T17:51:48.509Z,101384.73
2019-05-23T17:56:55.594Z,101387.75
2019-05-23T18:02:05.264Z,101373.67
2019-05-23T18:07:13.591Z,101373.67
2019-05-23T18:12:20.658Z,101386.09
2019-05-23T18:17:28.481Z,101391.45
2019-05-23T18:22:37.286Z,101391.45
2019-05-23T18:27:44.461Z,101394.48
2019-05-23T18:32:53.285Z,101393.02
2019-05-23T18:38:00.642Z,101400.11
2019-05-23T18:43:08.260Z,101402.73
2019-05-23T18:48:15.691Z,101396.80
2019-05-23T18:53:22.867Z,101401.95
2019-05-23T18:58:30.634Z,101407.74
2019-05-23T19:03:38.233Z,101407.74
2019-05-23T19:08:45.529Z,101415.32
2019-05-23T19:13:53.947Z,101424.45
2019-05-23T19:19:01.360Z,101427.47
2019-05-23T19:24:11.475Z,101433.25
2019-05-23T19:29:19.121Z,101435.12
2019-05-23T19:34:26.500Z,101438.59
2019-05-23T19:39:34.544Z,101442.58
2019-05-23T19:44:41.728Z,101444.56
2019-05-23T19:49:49.056Z,101447.13
2019-05-23T19:54:56.423Z,101446.48
2019-05-23T20:00:04.199Z,101441.94
2019-05-23T20:05:18.650Z,101429.94
2019-05-23T20:10:26.915Z,101436.33
2019-05-23T20:15:35.316Z,101436.33
2019-05-23T20:20:41.704Z,101432.92
2019-05-23T20:25:49.045Z,101433.09
2019-05-23T20:31:00.081Z,101433.09
2019-05-23T20:36:12.725Z,101433.34
2019-05-23T20:41:21.262Z,101423.82
2019-05-23T20:46:28.882Z,101435.55
2019-05-23T20:51:37.152Z,101434.97
2019-05-23T20:56:44.465Z,101433.54
2019-05-23T21:01:52.350Z,101432.14
2019-05-23T21:06:59.508Z,101429.00
2019-05-23T21:12:07.041Z,101416.99
2019-05-23T21:17:14.507Z,101414.69
2019-05-23T21:22:21.859Z,101413.52
2019-05-23T21:27:28.634Z,101418.23
2019-05-23T21:32:35.670Z,101415.00
2019-05-23T21:37:42.586Z,101421.39
2019-05-23T21:42:49.587Z,101421.39
2019-05-23T21:47:56.459Z,101421.84
2019-05-23T21:53:03.583Z,101417.25
2019-05-23T21:58:15.665Z,101423.84
2019-05-23T22:03:24.343Z,101420.45
2019-05-23T22:08:31.612Z,101420.45
2019-05-23T22:13:38.701Z,101417.58
2019-05-23T22:18:45.519Z,101416.25
2019-05-23T22:23:52.687Z,101416.25
2019-05-23T22:28:59.747Z,101408.05
2019-05-23T22:34:20.313Z,101408.05
2019-05-23T22:39:27.604Z,101405.35
2019-05-23T22:44:34.460Z,101390.55
2019-05-23T22:49:41.582Z,101390.55
2019-05-23T22:54:49.450Z,101403.02
2019-05-23T22:59:57.483Z,101403.02
2019-05-23T23:05:04.865Z,101398.08
2019-05-23T23:10:12.413Z,101398.48
2019-05-23T23:15:19.589Z,101388.80
2019-05-23T23:20:26.610Z,101382.06
2019-05-23T23:25:34.558Z,101376.02
2019-05-23T23:30:43.266Z,101390.78
2019-05-23T23:35:49.314Z,101390.78
2019-05-23T23:40:55.303Z,101390.56
2019-05-23T23:46:20.717Z,101375.30
2019-05-23T23:51:45.893Z,101385.10
2019-05-23T23:57:12.613Z,101379.91
